This is the latest recevied weather packets stored in our database for station/object GW1479. If no packets are shown the sender has not sent any weather packets the latest 10 day(s).
| Time | Temp. | Humidity | Pressure | Rain* | Wind** | Luminosity | Snow |
|---|---|---|---|---|---|---|---|
| 1777340547 | 20° C | 57% | 1015.9 hPa | 0 mm | - | - | - |
| 1777340207 | 20° C | 59% | 1015.9 hPa | 0 mm | - | - | - |
| 1777337298 | 22.22° C | 49% | 1015.9 hPa | 0 mm | - | - | - |
| 1777335890 | 22.22° C | 47% | 1015.9 hPa | 0 mm | - | - | - |
| 1777332627 | 23.89° C | 46% | 1015.5 hPa | 0 mm | - | - | - |
| 1777330491 | 25.56° C | 44% | 1015.5 hPa | 0 mm | - | - | - |
| 1777326861 | 27.78° C | 38% | 1015.5 hPa | 0 mm | - | - | - |
| 1777326171 | 27.78° C | 39% | 1015.5 hPa | 0 mm | - | - | - |
| 1777322919 | 28.89° C | 33% | 1015.9 hPa | 0 mm | - | - | - |
| 1777320052 | 29.44° C | 32% | 1016.5 hPa | 0 mm | - | - | - |
| 1777318247 | 28.33° C | 34% | 1016.9 hPa | 0 mm | - | - | - |
| 1777314287 | 27.78° C | 34% | 1018.6 hPa | 0 mm | - | - | - |
| 1777313213 | 26.11° C | 36% | 1018.9 hPa | 0 mm | - | - | - |
| 1777307091 | 22.78° C | 42% | 1019.9 hPa | 0 mm | - | - | - |
| 1777305250 | 21.11° C | 50% | 1020.3 hPa | 0 mm | - | - | - |
| 1777303133 | 20° C | 51% | 1020.6 hPa | 0 mm | - | - | - |
| 1777302731 | 19.44° C | 54% | 1020.6 hPa | 0 mm | - | - | - |
| 1777301295 | 18.33° C | 56% | 1021.3 hPa | 0 mm | - | - | - |
| 1777300948 | 18.33° C | 57% | 1021.3 hPa | 0 mm | - | - | - |
| 1777300590 | 18.89° C | 54% | 1021.3 hPa | 0 mm | - | - | - |
| 1777297734 | 17.22° C | 67% | 1021.3 hPa | 0 mm | - | - | - |
| 1777297359 | 16.67° C | 66% | 1021.6 hPa | 0 mm | - | - | - |
| 1777296286 | 15.56° C | 73% | 1021.6 hPa | 0 mm | - | - | - |
| 1777295563 | 14.44° C | 84% | 1022 hPa | 0 mm | - | - | - |
| 1777291238 | 6.11° C | 99% | 1022.3 hPa | 0 mm | - | - | - |
* Rain since midnight (hover to see other rain measurements)
** Current wind speed in m/s (hover to see current wind gust speed)